createdAt,value
2019-03-30T00:01:06.204Z,8.08
2019-03-30T00:03:34.625Z,7.70
2019-03-30T00:06:03.059Z,8.83
2019-03-30T00:08:31.498Z,8.20
2019-03-30T00:10:59.909Z,8.08
2019-03-30T00:13:28.347Z,8.85
2019-03-30T00:15:56.767Z,9.90
2019-03-30T00:18:25.203Z,8.43
2019-03-30T00:20:53.626Z,8.20
2019-03-30T00:23:22.058Z,9.25
2019-03-30T00:25:50.472Z,8.33
2019-03-30T00:28:18.918Z,8.48
2019-03-30T00:30:47.337Z,8.43
2019-03-30T00:33:15.771Z,9.73
2019-03-30T00:35:44.209Z,9.95
2019-03-30T00:38:12.640Z,9.00
2019-03-30T00:40:41.071Z,9.43
2019-03-30T00:43:09.499Z,8.93
2019-03-30T00:45:38.003Z,9.45
2019-03-30T00:48:06.449Z,8.68
2019-03-30T00:50:34.891Z,9.23
2019-03-30T00:53:03.314Z,9.83
2019-03-30T00:55:31.754Z,9.15
2019-03-30T00:58:00.192Z,10.13
2019-03-30T01:00:28.613Z,10.28
2019-03-30T01:02:57.084Z,9.38
2019-03-30T01:05:25.499Z,9.35
2019-03-30T01:07:53.940Z,10.32
2019-03-30T01:10:22.462Z,9.33
2019-03-30T01:12:50.898Z,8.68
2019-03-30T01:15:19.311Z,10.20
2019-03-30T01:17:47.758Z,9.73
2019-03-30T01:20:16.167Z,9.45
2019-03-30T01:22:44.613Z,9.45
2019-03-30T01:25:13.049Z,9.23
2019-03-30T01:27:41.458Z,10.63
2019-03-30T01:30:22.575Z,9.48
2019-03-30T01:32:39.968Z,11.93
2019-03-30T01:35:08.438Z,9.88
2019-03-30T01:37:36.923Z,9.75
2019-03-30T01:40:06.676Z,10.60
2019-03-30T01:42:35.088Z,10.13
2019-03-30T01:45:05.031Z,10.75
2019-03-30T01:47:33.533Z,11.23
2019-03-30T01:50:16.170Z,10.58
2019-03-30T01:52:32.337Z,10.40
2019-03-30T01:55:01.008Z,10.50
2019-03-30T01:57:29.701Z,11.65
2019-03-30T01:59:58.371Z,9.98
2019-03-30T02:02:27.076Z,10.85
2019-03-30T02:04:55.740Z,11.00
2019-03-30T02:07:24.435Z,10.70
2019-03-30T02:09:53.126Z,10.50
2019-03-30T02:12:21.823Z,11.48
2019-03-30T02:14:50.512Z,11.83
2019-03-30T02:17:20.290Z,12.23
2019-03-30T02:19:49.201Z,10.97
2019-03-30T02:22:17.858Z,11.03
2019-03-30T02:24:46.567Z,11.93
2019-03-30T02:27:15.254Z,11.50
2019-03-30T02:29:43.944Z,10.95
2019-03-30T02:32:12.644Z,11.35
2019-03-30T02:34:41.322Z,11.12
2019-03-30T02:37:10.027Z,10.93
2019-03-30T02:39:38.702Z,11.35
2019-03-30T02:42:07.404Z,10.82
2019-03-30T02:44:36.149Z,11.15
2019-03-30T02:47:04.883Z,11.53
2019-03-30T02:49:33.549Z,11.00
2019-03-30T02:52:02.253Z,10.30
2019-03-30T02:54:31.086Z,11.57
2019-03-30T02:56:59.813Z,11.05
2019-03-30T02:59:28.484Z,10.95
2019-03-30T03:01:57.165Z,10.78
2019-03-30T03:04:25.855Z,11.45
2019-03-30T03:06:54.525Z,11.53
2019-03-30T03:09:23.224Z,11.43
2019-03-30T03:11:51.909Z,11.12
2019-03-30T03:14:20.603Z,11.40
2019-03-30T03:16:49.299Z,11.70
2019-03-30T03:19:17.965Z,13.05
2019-03-30T03:21:46.652Z,12.00
2019-03-30T03:24:15.333Z,12.47
2019-03-30T03:26:44.025Z,12.10
2019-03-30T03:29:12.701Z,12.28
2019-03-30T03:31:41.398Z,12.05
2019-03-30T03:34:10.076Z,12.35
2019-03-30T03:36:38.767Z,11.75
2019-03-30T03:39:07.448Z,12.20
2019-03-30T03:41:36.134Z,11.20
2019-03-30T03:44:04.837Z,13.13
2019-03-30T03:46:33.508Z,11.75
2019-03-30T03:49:02.209Z,12.37
2019-03-30T03:51:30.876Z,13.38
2019-03-30T03:53:59.574Z,13.22
2019-03-30T03:56:28.240Z,13.38
2019-03-30T03:58:57.357Z,13.70
2019-03-30T04:01:26.518Z,14.35
2019-03-30T04:03:55.220Z,13.13
2019-03-30T04:06:23.890Z,12.65
2019-03-30T04:08:54.193Z,13.00
2019-03-30T04:11:22.965Z,12.63
2019-03-30T04:13:52.364Z,14.25
2019-03-30T04:16:21.066Z,12.73
2019-03-30T04:18:49.745Z,12.43
2019-03-30T04:21:18.438Z,12.30
2019-03-30T04:23:47.104Z,13.60
2019-03-30T04:26:15.797Z,13.00
2019-03-30T04:28:44.474Z,14.25
2019-03-30T04:31:13.172Z,13.05
2019-03-30T04:33:41.846Z,14.15
2019-03-30T04:36:10.545Z,14.05
2019-03-30T04:38:39.240Z,14.68
2019-03-30T04:41:07.908Z,14.30
2019-03-30T04:43:36.608Z,15.13
2019-03-30T04:46:05.285Z,13.62
2019-03-30T04:48:33.981Z,14.45
2019-03-30T04:51:02.651Z,13.62
2019-03-30T04:53:31.351Z,14.83
2019-03-30T04:56:00.044Z,14.70
2019-03-30T04:58:28.718Z,14.45
2019-03-30T05:00:57.413Z,14.63
2019-03-30T05:03:26.092Z,15.25
2019-03-30T05:05:54.780Z,15.40
2019-03-30T05:08:23.456Z,15.08
2019-03-30T05:10:52.159Z,15.05
2019-03-30T05:13:20.842Z,14.50
2019-03-30T05:15:49.534Z,14.85
2019-03-30T05:18:18.240Z,14.55
2019-03-30T05:20:46.917Z,14.07
2019-03-30T05:23:15.613Z,14.13
2019-03-30T05:25:44.284Z,14.50
2019-03-30T05:28:13.096Z,15.48
2019-03-30T05:30:41.783Z,15.23
2019-03-30T05:33:10.472Z,14.87
2019-03-30T05:35:39.161Z,14.68
2019-03-30T05:38:07.852Z,14.95
2019-03-30T05:40:36.526Z,14.53
2019-03-30T05:43:05.219Z,14.10
2019-03-30T05:45:33.923Z,14.00
2019-03-30T05:48:02.629Z,14.45
2019-03-30T05:50:31.304Z,14.28
2019-03-30T05:52:59.997Z,13.45
2019-03-30T05:55:28.701Z,15.40
2019-03-30T05:57:57.388Z,13.75
2019-03-30T06:00:26.080Z,14.10
2019-03-30T06:02:54.759Z,13.43
2019-03-30T06:05:23.479Z,14.10
2019-03-30T06:07:52.146Z,13.28
2019-03-30T06:10:20.837Z,13.50
2019-03-30T06:12:49.652Z,12.50
2019-03-30T06:15:18.368Z,13.55
2019-03-30T06:17:47.103Z,13.48
2019-03-30T06:20:15.844Z,13.58
2019-03-30T06:22:44.546Z,12.70
2019-03-30T06:25:13.216Z,12.45
2019-03-30T06:27:41.910Z,12.90
2019-03-30T06:30:47.577Z,12.93
2019-03-30T06:33:16.315Z,12.15
2019-03-30T06:35:45.083Z,12.07
2019-03-30T06:38:13.807Z,12.73
2019-03-30T06:40:42.488Z,12.63
2019-03-30T06:43:11.256Z,12.07
2019-03-30T06:45:39.932Z,11.55
2019-03-30T06:48:08.688Z,10.88
2019-03-30T06:50:37.438Z,10.98
2019-03-30T06:53:06.137Z,10.48
2019-03-30T06:55:34.796Z,10.63
2019-03-30T06:58:03.488Z,10.82
2019-03-30T07:00:33.874Z,9.83
2019-03-30T07:03:04.436Z,11.00
2019-03-30T07:05:37.477Z,10.08
2019-03-30T07:08:06.173Z,9.33
2019-03-30T07:10:38.271Z,9.28
2019-03-30T07:13:05.467Z,8.50
2019-03-30T07:15:34.627Z,8.40
2019-03-30T07:18:03.321Z,9.25
2019-03-30T07:20:32.047Z,8.53
2019-03-30T07:23:11.070Z,9.10
2019-03-30T07:25:31.366Z,9.93
2019-03-30T07:28:00.030Z,9.05
2019-03-30T07:30:28.803Z,8.78
2019-03-30T07:32:57.606Z,9.00
2019-03-30T07:35:26.273Z,8.98
2019-03-30T07:37:55.056Z,9.45
2019-03-30T07:40:23.722Z,8.58
2019-03-30T07:42:52.482Z,8.55
2019-03-30T07:45:21.182Z,9.15
2019-03-30T07:47:49.986Z,8.23
2019-03-30T07:50:18.697Z,9.25
2019-03-30T07:52:49.734Z,8.30
2019-03-30T07:55:18.459Z,7.78
2019-03-30T07:57:47.155Z,7.97
2019-03-30T08:00:15.842Z,8.08
2019-03-30T08:02:44.528Z,8.50
2019-03-30T08:05:13.236Z,7.15
2019-03-30T08:10:14.864Z,7.97
2019-03-30T08:12:43.554Z,7.50
2019-03-30T08:15:12.267Z,7.58
2019-03-30T08:17:40.965Z,7.83
2019-03-30T08:20:09.755Z,7.25
2019-03-30T08:22:38.642Z,7.90
2019-03-30T08:25:07.343Z,7.35
2019-03-30T08:27:36.097Z,6.72
2019-03-30T08:30:06.558Z,7.47
2019-03-30T08:32:35.253Z,7.08
2019-03-30T08:35:04.932Z,6.80
2019-03-30T08:37:33.639Z,6.85
2019-03-30T08:40:02.345Z,6.53
2019-03-30T08:42:31.053Z,6.80
2019-03-30T08:44:59.746Z,6.12
2019-03-30T08:47:28.476Z,5.97
2019-03-30T08:49:56.908Z,6.70
2019-03-30T08:52:25.605Z,6.22
2019-03-30T08:54:54.305Z,7.22
2019-03-30T08:57:22.982Z,6.08
2019-03-30T08:59:51.668Z,6.40
2019-03-30T09:02:20.037Z,6.53
2019-03-30T09:04:48.467Z,6.35
2019-03-30T09:07:24.184Z,7.25
2019-03-30T09:09:52.553Z,6.72
2019-03-30T09:12:20.956Z,6.92
2019-03-30T09:14:49.377Z,6.15
2019-03-30T09:17:18.056Z,5.90
2019-03-30T09:19:46.753Z,7.35
2019-03-30T09:22:15.472Z,7.25
2019-03-30T09:24:44.154Z,5.35
2019-03-30T09:27:12.853Z,5.80
2019-03-30T09:29:41.528Z,8.05
2019-03-30T09:32:14.748Z,6.03
2019-03-30T09:34:40.573Z,5.22
2019-03-30T09:37:09.265Z,6.40
2019-03-30T09:39:37.940Z,6.92
2019-03-30T09:42:06.636Z,6.75
2019-03-30T09:44:35.339Z,6.70
2019-03-30T09:47:04.018Z,5.80
2019-03-30T09:49:32.720Z,6.47
2019-03-30T09:52:01.394Z,6.10
2019-03-30T09:54:30.093Z,6.12
2019-03-30T09:56:58.773Z,7.62
2019-03-30T09:59:27.462Z,6.53
2019-03-30T10:01:56.147Z,6.80
2019-03-30T10:04:24.838Z,6.97
2019-03-30T10:06:53.538Z,6.72
2019-03-30T10:09:22.219Z,6.90
2019-03-30T10:11:50.915Z,6.65
2019-03-30T10:14:19.597Z,7.15
2019-03-30T10:16:48.791Z,7.03
2019-03-30T10:19:17.695Z,7.28
2019-03-30T10:21:46.372Z,7.35
2019-03-30T10:24:15.074Z,7.70
2019-03-30T10:26:43.745Z,6.70
2019-03-30T10:29:12.446Z,6.87
2019-03-30T10:31:41.117Z,6.83
2019-03-30T10:34:09.817Z,6.22
2019-03-30T10:36:38.512Z,7.62
2019-03-30T10:39:07.883Z,6.75
2019-03-30T10:41:36.591Z,6.92
2019-03-30T10:44:05.264Z,5.97
2019-03-30T10:46:33.964Z,6.65
2019-03-30T10:49:02.642Z,6.47
2019-03-30T10:51:31.344Z,7.20
2019-03-30T10:54:00.024Z,5.87
2019-03-30T10:56:28.698Z,6.37
2019-03-30T10:58:57.399Z,6.15
2019-03-30T11:01:26.075Z,6.35
2019-03-30T11:03:54.769Z,7.25
2019-03-30T11:06:23.447Z,8.83
2019-03-30T11:08:52.145Z,7.87
2019-03-30T11:11:20.822Z,7.20
2019-03-30T11:13:49.617Z,7.92
2019-03-30T11:16:18.309Z,7.95
2019-03-30T11:18:46.990Z,7.28
2019-03-30T11:21:15.688Z,6.72
2019-03-30T11:23:44.454Z,7.72
2019-03-30T11:26:13.179Z,7.12
2019-03-30T11:28:41.856Z,7.90
2019-03-30T11:31:10.565Z,6.62
2019-03-30T11:33:39.238Z,7.62
2019-03-30T11:36:07.933Z,6.83
2019-03-30T11:38:36.638Z,6.95
2019-03-30T11:41:05.303Z,6.12
2019-03-30T11:43:34.008Z,7.03
2019-03-30T11:46:02.685Z,6.42
2019-03-30T11:48:31.381Z,6.37
2019-03-30T11:51:00.059Z,6.37
2019-03-30T11:53:28.749Z,5.85
2019-03-30T11:55:57.445Z,6.03
2019-03-30T11:58:26.129Z,6.28
2019-03-30T12:00:54.820Z,7.80
2019-03-30T12:03:23.492Z,6.85
2019-03-30T12:05:52.184Z,6.45
2019-03-30T12:08:20.860Z,5.75
2019-03-30T12:10:49.565Z,6.20
2019-03-30T12:13:18.264Z,6.58
2019-03-30T12:15:46.936Z,6.17
2019-03-30T12:18:16.531Z,7.53
2019-03-30T12:20:45.196Z,7.20
2019-03-30T12:23:13.901Z,7.53
2019-03-30T12:25:42.588Z,8.38
2019-03-30T12:28:11.301Z,8.03
2019-03-30T12:30:39.984Z,7.58
2019-03-30T12:33:08.685Z,8.03
2019-03-30T12:35:37.397Z,8.35
2019-03-30T12:38:06.048Z,8.38
2019-03-30T12:40:34.750Z,7.70
2019-03-30T12:43:03.420Z,7.83
2019-03-30T12:45:32.120Z,8.30
2019-03-30T12:48:00.798Z,7.83
2019-03-30T12:50:29.489Z,7.90
2019-03-30T12:52:58.176Z,8.98
2019-03-30T12:55:26.876Z,8.80
2019-03-30T12:57:55.580Z,8.60
2019-03-30T13:00:24.252Z,8.83
2019-03-30T13:02:52.949Z,8.85
2019-03-30T13:05:21.631Z,7.83
2019-03-30T13:07:50.329Z,8.55
2019-03-30T13:10:19.007Z,7.65
2019-03-30T13:12:47.709Z,7.08
2019-03-30T13:15:16.377Z,6.90
2019-03-30T13:17:45.076Z,6.67
2019-03-30T13:20:13.758Z,7.87
2019-03-30T13:22:42.468Z,6.47
2019-03-30T13:25:11.161Z,7.08
2019-03-30T13:27:39.840Z,6.15
2019-03-30T13:30:08.628Z,5.62
2019-03-30T13:32:37.311Z,6.53
2019-03-30T13:35:06.012Z,6.15
2019-03-30T13:37:35.672Z,6.33
2019-03-30T13:40:06.824Z,6.05
2019-03-30T13:42:35.508Z,6.60
2019-03-30T13:45:06.012Z,6.50
2019-03-30T13:47:36.362Z,7.40
2019-03-30T13:50:06.736Z,6.95
2019-03-30T13:52:35.761Z,7.20
2019-03-30T13:55:05.237Z,7.35
2019-03-30T13:57:33.930Z,6.53
2019-03-30T14:00:02.796Z,6.97
2019-03-30T14:02:31.493Z,8.80
2019-03-30T14:05:00.340Z,6.53
2019-03-30T14:07:29.072Z,7.80
2019-03-30T14:09:57.845Z,7.55
2019-03-30T14:12:26.755Z,7.42
2019-03-30T14:14:55.426Z,8.50
2019-03-30T14:17:24.120Z,9.00
2019-03-30T14:19:52.817Z,7.90
2019-03-30T14:22:21.497Z,8.38
2019-03-30T14:24:50.192Z,8.10
2019-03-30T14:27:18.872Z,8.20
2019-03-30T14:29:47.566Z,8.18
2019-03-30T14:32:16.265Z,7.67
2019-03-30T14:34:44.933Z,9.18
2019-03-30T14:37:13.629Z,8.18
2019-03-30T14:39:42.323Z,8.43
2019-03-30T14:42:11.014Z,8.38
2019-03-30T14:45:00.586Z,8.55
2019-03-30T14:47:30.196Z,8.30
2019-03-30T14:49:58.872Z,7.83
2019-03-30T14:52:27.574Z,7.50
2019-03-30T14:54:56.347Z,7.65
2019-03-30T14:57:25.040Z,9.15
2019-03-30T14:59:53.869Z,7.85
2019-03-30T15:02:22.865Z,9.20
2019-03-30T15:04:51.580Z,7.92
2019-03-30T15:07:20.272Z,8.10
2019-03-30T15:09:49.009Z,9.18
2019-03-30T15:12:17.645Z,9.00
2019-03-30T15:14:46.344Z,7.97
2019-03-30T15:17:15.045Z,7.83
2019-03-30T15:19:43.748Z,8.30
2019-03-30T15:22:12.454Z,7.95
2019-03-30T15:24:41.116Z,8.48
2019-03-30T15:27:09.810Z,7.40
2019-03-30T15:29:38.488Z,7.42
2019-03-30T15:32:07.187Z,6.45
2019-03-30T15:34:35.860Z,7.20
2019-03-30T15:37:04.564Z,6.78
2019-03-30T15:39:33.249Z,7.40
2019-03-30T15:42:01.947Z,7.37
2019-03-30T15:44:30.655Z,6.67
2019-03-30T15:46:59.326Z,5.85
2019-03-30T15:49:28.026Z,6.90
2019-03-30T15:51:56.700Z,6.90
2019-03-30T15:54:25.402Z,6.53
2019-03-30T15:56:54.077Z,6.62
2019-03-30T15:59:22.774Z,7.62
2019-03-30T16:01:51.457Z,7.67
2019-03-30T16:04:20.157Z,7.25
2019-03-30T16:06:48.846Z,6.42
2019-03-30T16:09:17.617Z,7.40
2019-03-30T16:11:46.318Z,5.95
2019-03-30T16:14:14.993Z,6.78
2019-03-30T16:16:43.684Z,6.70
2019-03-30T16:19:12.360Z,7.22
2019-03-30T16:21:41.053Z,7.75
2019-03-30T16:24:09.726Z,7.97
2019-03-30T16:26:42.141Z,6.58
2019-03-30T16:29:08.763Z,8.83
2019-03-30T16:31:37.432Z,7.00
2019-03-30T16:34:06.145Z,7.53
2019-03-30T16:36:34.812Z,7.05
2019-03-30T16:39:05.014Z,5.50
2019-03-30T16:41:33.710Z,7.12
2019-03-30T16:44:02.403Z,6.97
2019-03-30T16:46:31.076Z,6.70
2019-03-30T16:48:59.769Z,8.33
2019-03-30T16:51:28.468Z,8.88
2019-03-30T16:53:57.140Z,7.40
2019-03-30T16:56:25.838Z,8.10
2019-03-30T16:58:54.521Z,8.20
2019-03-30T17:01:23.225Z,7.15
2019-03-30T17:03:51.913Z,8.13
2019-03-30T17:06:20.600Z,9.40
2019-03-30T17:08:49.294Z,9.83
2019-03-30T17:11:17.965Z,9.85
2019-03-30T17:13:46.663Z,9.40
2019-03-30T17:16:15.340Z,9.23
2019-03-30T17:18:44.042Z,8.75
2019-03-30T17:21:12.749Z,8.63
2019-03-30T17:23:41.438Z,9.10
2019-03-30T17:26:10.113Z,9.88
2019-03-30T17:28:38.792Z,9.45
2019-03-30T17:31:07.484Z,9.98
2019-03-30T17:33:36.163Z,9.93
2019-03-30T17:36:04.869Z,10.30
2019-03-30T17:38:33.538Z,9.55
2019-03-30T17:41:02.228Z,9.60
2019-03-30T17:43:30.934Z,10.00
2019-03-30T17:45:59.604Z,10.53
2019-03-30T17:48:28.303Z,10.25
2019-03-30T17:50:58.378Z,9.35
2019-03-30T17:53:27.477Z,10.03
2019-03-30T17:55:56.160Z,9.20
2019-03-30T17:58:24.844Z,9.88
2019-03-30T18:00:53.538Z,10.38
2019-03-30T18:03:22.204Z,10.43
2019-03-30T18:05:50.909Z,9.53
2019-03-30T18:08:19.581Z,9.55
2019-03-30T18:10:48.381Z,11.08
2019-03-30T18:13:17.053Z,10.55
2019-03-30T18:15:45.750Z,10.65
2019-03-30T18:18:14.424Z,9.75
2019-03-30T18:20:43.092Z,10.43
2019-03-30T18:23:11.825Z,11.12
2019-03-30T18:25:40.471Z,10.88
2019-03-30T18:28:09.180Z,10.82
2019-03-30T18:30:39.859Z,10.82
2019-03-30T18:33:08.551Z,11.12
2019-03-30T18:35:39.321Z,11.45
2019-03-30T18:38:08.006Z,11.75
2019-03-30T18:40:36.699Z,11.30
2019-03-30T18:43:05.372Z,11.60
2019-03-30T18:45:34.070Z,10.78
2019-03-30T18:48:13.257Z,11.85
2019-03-30T18:50:42.054Z,11.95
2019-03-30T18:53:10.749Z,12.33
2019-03-30T18:55:39.424Z,12.73
2019-03-30T18:58:08.128Z,12.85
2019-03-30T19:00:36.909Z,12.80
2019-03-30T19:03:06.308Z,14.10
2019-03-30T19:05:35.353Z,14.13
2019-03-30T19:08:03.988Z,14.07
2019-03-30T19:10:32.917Z,13.45
2019-03-30T19:13:01.597Z,14.38
2019-03-30T19:15:30.287Z,14.35
2019-03-30T19:18:00.981Z,15.55
2019-03-30T19:20:30.715Z,14.95
2019-03-30T19:22:59.399Z,16.37
2019-03-30T19:25:29.746Z,16.62
2019-03-30T19:27:58.561Z,17.60
2019-03-30T19:30:27.308Z,17.27
2019-03-30T19:32:55.977Z,17.60
2019-03-30T19:35:24.661Z,17.50
2019-03-30T19:37:53.360Z,17.23
2019-03-30T19:40:22.068Z,17.85
2019-03-30T19:42:50.816Z,17.45
2019-03-30T19:45:19.531Z,19.45
2019-03-30T19:47:48.221Z,20.35
2019-03-30T19:50:16.949Z,21.00
2019-03-30T19:52:45.619Z,20.60
2019-03-30T19:55:14.437Z,20.90
2019-03-30T19:57:43.143Z,23.22
2019-03-30T20:00:14.644Z,23.02
2019-03-30T20:03:02.729Z,23.67
2019-03-30T20:05:31.511Z,22.73
2019-03-30T20:08:11.553Z,25.08
2019-03-30T20:10:30.604Z,24.10
2019-03-30T20:12:59.984Z,25.05
2019-03-30T20:15:28.672Z,25.68
2019-03-30T20:17:57.349Z,25.08
2019-03-30T20:20:26.021Z,27.85
2019-03-30T20:22:54.725Z,27.65
2019-03-30T20:25:26.023Z,27.62
2019-03-30T20:27:53.817Z,27.93
2019-03-30T20:30:24.355Z,29.00
2019-03-30T20:32:52.860Z,29.85
2019-03-30T20:35:21.552Z,28.27
2019-03-30T20:37:50.231Z,28.67
2019-03-30T20:40:18.930Z,30.20
2019-03-30T20:42:47.685Z,32.65
2019-03-30T20:45:16.410Z,31.07
2019-03-30T20:47:45.106Z,31.73
2019-03-30T20:50:13.791Z,30.88
2019-03-30T20:52:42.529Z,31.42
2019-03-30T20:55:11.308Z,32.17
2019-03-30T20:57:41.663Z,31.90
2019-03-30T21:00:11.727Z,23.35
2019-03-30T21:02:40.417Z,31.33
2019-03-30T21:05:09.104Z,32.95
2019-03-30T21:07:37.938Z,33.75
2019-03-30T21:10:10.973Z,33.55
2019-03-30T21:12:39.652Z,34.00
2019-03-30T21:15:08.323Z,33.78
2019-03-30T21:17:37.020Z,34.65
2019-03-30T21:20:06.198Z,35.25
2019-03-30T21:22:34.944Z,33.02
2019-03-30T21:25:04.450Z,34.55
2019-03-30T21:27:33.184Z,34.43
2019-03-30T21:30:02.014Z,33.90
2019-03-30T21:32:30.747Z,33.50
2019-03-30T21:34:59.445Z,33.02
2019-03-30T21:37:28.152Z,34.00
2019-03-30T21:39:56.909Z,32.28
2019-03-30T21:42:25.617Z,33.90
2019-03-30T21:44:54.281Z,32.73
2019-03-30T21:47:23.049Z,32.83
2019-03-30T21:49:51.824Z,33.23
2019-03-30T21:52:21.434Z,30.60
2019-03-30T21:54:50.101Z,30.25
2019-03-30T21:57:18.800Z,30.30
2019-03-30T21:59:47.476Z,29.85
2019-03-30T22:02:16.201Z,29.65
2019-03-30T22:04:44.926Z,31.80
2019-03-30T22:07:13.618Z,30.55
2019-03-30T22:09:42.327Z,28.75
2019-03-30T22:12:11.049Z,29.70
2019-03-30T22:14:39.749Z,28.17
2019-03-30T22:17:10.010Z,26.73
2019-03-30T22:19:38.733Z,28.23
2019-03-30T22:22:07.420Z,26.45
2019-03-30T22:24:36.181Z,25.82
2019-03-30T22:27:04.828Z,25.92
2019-03-30T22:29:33.531Z,24.92
2019-03-30T22:32:02.226Z,24.75
2019-03-30T22:34:30.924Z,25.62
2019-03-30T22:36:59.602Z,24.15
2019-03-30T22:39:28.312Z,24.90
2019-03-30T22:41:57.012Z,24.43
2019-03-30T22:44:25.720Z,23.45
2019-03-30T22:46:54.408Z,24.23
2019-03-30T22:49:23.123Z,25.27
2019-03-30T22:51:51.814Z,24.07
2019-03-30T22:54:20.534Z,23.25
2019-03-30T22:56:49.205Z,23.95
2019-03-30T22:59:17.919Z,22.82
2019-03-30T23:01:46.585Z,23.18
2019-03-30T23:04:15.276Z,24.32
2019-03-30T23:06:43.970Z,22.95
2019-03-30T23:09:12.645Z,24.75
2019-03-30T23:11:41.337Z,23.12
2019-03-30T23:14:10.009Z,23.65
2019-03-30T23:16:38.710Z,22.85
2019-03-30T23:19:07.380Z,22.50
2019-03-30T23:21:36.078Z,23.27
2019-03-30T23:24:04.780Z,24.50
2019-03-30T23:26:33.445Z,23.60
2019-03-30T23:29:02.136Z,22.82
2019-03-30T23:31:30.805Z,24.12
2019-03-30T23:33:59.500Z,25.85
2019-03-30T23:36:28.165Z,24.47
2019-03-30T23:38:56.867Z,23.40
2019-03-30T23:41:25.564Z,25.45
2019-03-30T23:43:54.236Z,24.52
2019-03-30T23:46:22.929Z,23.45
2019-03-30T23:48:51.606Z,26.17
2019-03-30T23:51:20.303Z,25.02
2019-03-30T23:53:48.972Z,24.80
2019-03-30T23:56:21.901Z,24.92
2019-03-30T23:58:51.174Z,24.85
